createdAt,value
2022-10-18T00:02:08.681Z,17.08
2022-10-18T00:04:41.698Z,17.09
2022-10-18T00:07:15.783Z,17.06
2022-10-18T00:09:48.738Z,17.05
2022-10-18T00:12:21.832Z,16.99
2022-10-18T00:14:54.709Z,17.01
2022-10-18T00:17:27.796Z,16.96
2022-10-18T00:20:00.680Z,16.87
2022-10-18T00:22:37.221Z,16.89
2022-10-18T00:25:11.120Z,16.85
2022-10-18T00:27:43.984Z,16.89
2022-10-18T00:30:17.236Z,16.76
2022-10-18T00:32:50.107Z,16.77
2022-10-18T00:35:22.818Z,16.73
2022-10-18T00:37:57.078Z,16.71
2022-10-18T00:40:30.016Z,16.68
2022-10-18T00:43:02.903Z,16.64
2022-10-18T00:45:35.728Z,16.63
2022-10-18T00:48:08.759Z,16.59
2022-10-18T00:50:41.616Z,16.57
2022-10-18T00:53:18.913Z,16.57
2022-10-18T00:55:52.104Z,16.55
2022-10-18T00:58:24.997Z,16.52
2022-10-18T01:00:58.089Z,16.48
2022-10-18T01:03:31.280Z,16.48
2022-10-18T01:06:04.102Z,16.47
2022-10-18T01:08:48.189Z,16.47
2022-10-18T01:11:34.658Z,16.43
2022-10-18T01:14:19.844Z,16.40
2022-10-18T01:17:05.140Z,16.37
2022-10-18T01:20:03.343Z,16.27
2022-10-18T01:22:40.598Z,16.25
2022-10-18T01:25:30.915Z,16.27
2022-10-18T01:28:20.525Z,16.27
2022-10-18T01:31:00.919Z,16.29
2022-10-18T01:33:41.017Z,16.26
2022-10-18T01:36:19.954Z,16.28
2022-10-18T01:38:56.446Z,16.21
2022-10-18T01:41:30.599Z,16.19
2022-10-18T01:44:07.094Z,16.20
2022-10-18T01:46:45.521Z,16.16
2022-10-18T01:49:20.894Z,16.14
2022-10-18T01:51:54.328Z,16.14
2022-10-18T01:54:32.627Z,16.16
2022-10-18T01:57:11.284Z,16.12
2022-10-18T01:59:52.775Z,16.08
2022-10-18T02:02:41.437Z,16.05
2022-10-18T02:05:23.251Z,16.06
2022-10-18T02:08:12.622Z,16.00
2022-10-18T02:10:56.833Z,16.00
2022-10-18T02:13:34.575Z,15.94
2022-10-18T02:16:12.046Z,15.93
2022-10-18T02:18:51.023Z,15.93
2022-10-18T02:21:26.473Z,15.85
2022-10-18T02:24:02.266Z,15.83
2022-10-18T02:26:35.426Z,15.86
2022-10-18T02:29:08.963Z,15.79
2022-10-18T02:31:46.137Z,15.81
2022-10-18T02:34:23.696Z,15.85
2022-10-18T02:36:59.816Z,15.86
2022-10-18T02:39:35.674Z,15.81
2022-10-18T02:42:11.186Z,15.75
2022-10-18T02:44:44.383Z,15.80
2022-10-18T02:47:17.275Z,15.77
2022-10-18T02:49:51.433Z,15.75
2022-10-18T02:52:24.467Z,15.69
2022-10-18T02:54:57.247Z,15.69
2022-10-18T02:57:30.480Z,15.63
2022-10-18T03:00:04.971Z,15.59
2022-10-18T03:02:37.838Z,15.59
2022-10-18T03:05:12.061Z,15.57
2022-10-18T03:07:45.038Z,15.48
2022-10-18T03:10:17.875Z,15.54
2022-10-18T03:12:50.705Z,15.59
2022-10-18T03:15:23.682Z,15.54
2022-10-18T03:17:56.494Z,15.50
2022-10-18T03:20:31.171Z,15.52
2022-10-18T03:23:04.385Z,15.47
2022-10-18T03:25:37.482Z,15.47
2022-10-18T03:28:11.155Z,15.44
2022-10-18T03:30:43.946Z,15.38
2022-10-18T03:33:16.968Z,15.39
2022-10-18T03:35:51.324Z,15.36
2022-10-18T03:38:24.155Z,15.31
2022-10-18T03:40:57.029Z,15.35
2022-10-18T03:43:30.034Z,15.34
2022-10-18T03:46:02.701Z,15.34
2022-10-18T03:48:35.483Z,15.30
2022-10-18T03:51:09.692Z,15.31
2022-10-18T03:53:42.543Z,15.34
2022-10-18T03:56:15.408Z,15.31
2022-10-18T03:58:48.307Z,15.24
2022-10-18T04:01:21.372Z,15.25
2022-10-18T04:03:54.521Z,15.25
2022-10-18T04:06:28.910Z,15.22
2022-10-18T04:09:04.166Z,15.15
2022-10-18T04:11:39.831Z,15.18
2022-10-18T04:14:18.760Z,15.20
2022-10-18T04:16:51.440Z,15.16
2022-10-18T04:19:24.528Z,15.16
2022-10-18T04:21:58.996Z,15.15
2022-10-18T04:24:31.798Z,15.12
2022-10-18T04:27:35.451Z,15.12
2022-10-18T04:30:25.540Z,15.10
2022-10-18T04:32:58.389Z,15.12
2022-10-18T04:35:31.295Z,15.11
2022-10-18T04:38:05.526Z,15.02
2022-10-18T04:40:38.565Z,14.97
2022-10-18T04:43:11.314Z,14.97
2022-10-18T04:45:46.140Z,14.99
2022-10-18T04:48:19.807Z,14.95
2022-10-18T04:50:52.900Z,14.91
2022-10-18T04:53:26.867Z,14.98
2022-10-18T04:56:00.029Z,14.90
2022-10-18T04:58:33.809Z,14.85
2022-10-18T05:01:07.567Z,14.86
2022-10-18T05:03:41.575Z,14.89
2022-10-18T05:06:14.552Z,14.85
2022-10-18T05:08:49.307Z,14.78
2022-10-18T05:11:22.050Z,14.80
2022-10-18T05:13:55.011Z,14.77
2022-10-18T05:16:28.401Z,14.72
2022-10-18T05:19:01.225Z,14.73
2022-10-18T05:21:34.803Z,14.74
2022-10-18T05:24:11.342Z,14.73
2022-10-18T05:26:44.181Z,14.72
2022-10-18T05:29:17.088Z,14.65
2022-10-18T05:31:50.327Z,14.63
2022-10-18T05:34:24.711Z,14.63
2022-10-18T05:36:57.536Z,14.63
2022-10-18T05:39:31.804Z,14.56
2022-10-18T05:42:04.744Z,14.60
2022-10-18T05:44:37.441Z,14.59
2022-10-18T05:47:10.234Z,14.56
2022-10-18T05:49:43.167Z,14.56
2022-10-18T05:52:17.125Z,14.48
2022-10-18T05:54:51.365Z,14.52
2022-10-18T05:57:24.091Z,14.49
2022-10-18T05:59:57.078Z,14.46
2022-10-18T06:02:29.938Z,14.44
2022-10-18T06:05:02.916Z,14.44
2022-10-18T06:07:35.756Z,14.36
2022-10-18T06:10:11.571Z,14.33
2022-10-18T06:12:44.554Z,14.32
2022-10-18T06:15:17.413Z,14.33
2022-10-18T06:17:50.110Z,14.38
2022-10-18T06:20:23.176Z,14.32
2022-10-18T06:22:56.015Z,14.34
2022-10-18T06:25:30.190Z,14.37
2022-10-18T06:28:07.736Z,14.32
2022-10-18T06:30:43.084Z,14.34
2022-10-18T06:33:15.740Z,14.27
2022-10-18T06:35:55.878Z,14.24
2022-10-18T06:38:29.620Z,14.21
2022-10-18T06:41:04.003Z,14.29
2022-10-18T06:43:37.164Z,14.25
2022-10-18T06:46:10.199Z,14.19
2022-10-18T06:48:42.894Z,14.19
2022-10-18T06:51:18.363Z,14.25
2022-10-18T06:53:59.706Z,14.10
2022-10-18T06:56:45.375Z,14.15
2022-10-18T06:59:18.418Z,14.12
2022-10-18T07:01:51.537Z,14.10
2022-10-18T07:04:24.214Z,14.15
2022-10-18T07:06:57.405Z,14.12
2022-10-18T07:09:30.607Z,14.17
2022-10-18T07:12:12.539Z,14.13
2022-10-18T07:14:46.198Z,14.14
2022-10-18T07:17:18.943Z,14.15
2022-10-18T07:19:51.697Z,14.24
2022-10-18T07:22:29.413Z,14.16
2022-10-18T07:25:03.073Z,14.19
2022-10-18T07:27:54.604Z,14.17
2022-10-18T07:30:27.788Z,14.19
2022-10-18T07:33:00.632Z,14.23
2022-10-18T07:35:33.605Z,14.28
2022-10-18T07:38:06.384Z,14.34
2022-10-18T07:40:39.560Z,14.37
2022-10-18T07:43:16.155Z,14.38
2022-10-18T07:45:55.777Z,14.41
2022-10-18T07:48:29.363Z,14.41
2022-10-18T07:51:03.344Z,14.41
2022-10-18T07:53:36.427Z,14.48
2022-10-18T07:56:11.867Z,14.54
2022-10-18T07:58:47.732Z,14.57
2022-10-18T08:01:21.800Z,14.61
2022-10-18T08:03:55.178Z,14.70
2022-10-18T08:06:28.016Z,14.74
2022-10-18T08:09:04.742Z,14.81
2022-10-18T08:11:37.788Z,14.87
2022-10-18T08:14:12.066Z,14.94
2022-10-18T08:16:46.426Z,14.99
2022-10-18T08:19:19.513Z,15.02
2022-10-18T08:21:52.457Z,15.05
2022-10-18T08:24:25.861Z,15.13
2022-10-18T08:26:58.876Z,15.11
2022-10-18T08:29:35.593Z,15.19
2022-10-18T08:32:08.829Z,15.22
2022-10-18T08:34:41.828Z,15.32
2022-10-18T08:37:14.603Z,15.32
2022-10-18T08:39:47.482Z,15.40
2022-10-18T08:42:42.646Z,15.45
2022-10-18T08:45:30.076Z,15.61
2022-10-18T08:48:21.771Z,15.80
2022-10-18T08:50:56.793Z,15.85
2022-10-18T08:53:49.486Z,16.35
2022-10-18T08:56:24.523Z,16.75
2022-10-18T08:58:57.462Z,16.95
2022-10-18T09:01:43.173Z,16.95
2022-10-18T09:04:35.094Z,16.95
2022-10-18T09:07:25.521Z,17.10
2022-10-18T09:10:06.295Z,17.25
2022-10-18T09:12:59.571Z,17.61
2022-10-18T09:15:42.231Z,17.44
2022-10-18T09:18:31.325Z,17.47
2022-10-18T09:21:17.007Z,17.61
2022-10-18T09:23:59.093Z,17.81
2022-10-18T09:26:37.947Z,17.76
2022-10-18T09:29:30.241Z,17.97
2022-10-18T09:32:14.067Z,18.06
2022-10-18T09:34:53.505Z,18.11
2022-10-18T09:37:31.507Z,18.37
2022-10-18T09:40:16.552Z,18.30
2022-10-18T09:42:56.437Z,18.46
2022-10-18T09:45:33.709Z,18.52
2022-10-18T09:48:13.100Z,18.53
2022-10-18T09:50:55.790Z,18.77
2022-10-18T09:53:36.963Z,18.76
2022-10-18T09:56:15.813Z,18.83
2022-10-18T09:58:51.418Z,18.91
2022-10-18T10:01:26.718Z,19.00
2022-10-18T10:03:59.770Z,19.15
2022-10-18T10:06:34.605Z,19.04
2022-10-18T10:09:15.256Z,19.24
2022-10-18T10:11:50.357Z,19.24
2022-10-18T10:14:26.420Z,19.32
2022-10-18T10:17:02.440Z,19.40
2022-10-18T10:19:38.548Z,19.64
2022-10-18T10:22:15.200Z,19.70
2022-10-18T10:24:50.607Z,19.70
2022-10-18T10:27:31.122Z,19.46
2022-10-18T10:30:21.746Z,19.87
2022-10-18T10:32:56.621Z,20.03
2022-10-18T10:38:28.951Z,20.21
2022-10-18T10:41:02.086Z,20.33
2022-10-18T10:43:39.982Z,20.36
2022-10-18T10:46:14.529Z,20.33
2022-10-18T10:48:56.309Z,20.44
2022-10-18T10:52:08.802Z,20.57
2022-10-18T10:55:06.162Z,20.65
2022-10-18T10:57:53.329Z,20.69
2022-10-18T11:00:41.832Z,20.72
2022-10-18T11:03:28.372Z,20.78
2022-10-18T11:06:02.322Z,20.97
2022-10-18T11:08:43.292Z,21.04
2022-10-18T11:11:26.768Z,21.07
2022-10-18T11:14:25.841Z,21.25
2022-10-18T11:17:08.286Z,21.20
2022-10-18T11:19:50.857Z,21.22
2022-10-18T11:22:26.900Z,21.38
2022-10-18T11:25:03.389Z,21.49
2022-10-18T11:27:45.744Z,21.52
2022-10-18T11:30:34.867Z,21.59
2022-10-18T11:33:17.647Z,21.63
2022-10-18T11:35:58.197Z,21.71
2022-10-18T11:38:47.792Z,21.77
2022-10-18T11:41:31.237Z,21.84
2022-10-18T11:44:14.817Z,21.96
2022-10-18T11:47:02.195Z,22.05
2022-10-18T11:49:52.209Z,22.13
2022-10-18T11:52:32.027Z,22.21
2022-10-18T11:55:27.631Z,22.27
2022-10-18T11:58:14.282Z,22.32
2022-10-18T12:00:53.306Z,22.29
2022-10-18T12:03:38.603Z,22.39
2022-10-18T12:06:32.444Z,22.51
2022-10-18T12:09:15.209Z,22.53
2022-10-18T12:11:55.804Z,22.49
2022-10-18T12:14:32.017Z,22.62
2022-10-18T12:17:40.771Z,22.68
2022-10-18T12:20:15.409Z,22.62
2022-10-18T12:22:58.242Z,22.73
2022-10-18T12:25:35.118Z,22.74
2022-10-18T12:28:18.304Z,22.77
2022-10-18T12:30:54.904Z,22.80
2022-10-18T12:33:35.622Z,22.85
2022-10-18T12:36:19.892Z,22.87
2022-10-18T12:38:58.489Z,22.88
2022-10-18T12:41:33.450Z,22.93
2022-10-18T12:44:09.274Z,22.93
2022-10-18T12:46:48.388Z,22.98
2022-10-18T12:49:28.557Z,22.96
2022-10-18T12:52:04.247Z,22.94
2022-10-18T12:54:39.327Z,22.93
2022-10-18T12:57:23.726Z,22.87
2022-10-18T12:59:56.833Z,22.96
2022-10-18T13:02:32.237Z,22.83
2022-10-18T13:05:41.308Z,22.80
2022-10-18T13:08:43.803Z,22.61
2022-10-18T13:11:30.957Z,22.39
2022-10-18T13:14:36.136Z,22.30
2022-10-18T13:17:26.406Z,22.30
2022-10-18T13:20:31.276Z,22.31
2022-10-18T13:23:19.066Z,22.27
2022-10-18T13:26:06.444Z,21.99
2022-10-18T13:28:54.187Z,22.02
2022-10-18T13:31:41.058Z,22.02
2022-10-18T13:34:33.158Z,21.88
2022-10-18T13:37:26.179Z,21.76
2022-10-18T13:40:25.138Z,21.70
2022-10-18T13:43:40.043Z,21.56
2022-10-18T13:46:13.090Z,21.56
2022-10-18T13:48:49.378Z,21.48
2022-10-18T13:51:49.897Z,21.30
2022-10-18T13:55:01.968Z,21.24
2022-10-18T13:57:51.987Z,21.10
2022-10-18T14:00:52.681Z,21.10
2022-10-18T14:04:02.227Z,20.91
2022-10-18T14:06:37.521Z,20.91
2022-10-18T14:09:26.016Z,20.91
2022-10-18T14:12:20.432Z,20.76
2022-10-18T14:14:59.099Z,20.67
2022-10-18T14:17:40.968Z,20.60
2022-10-18T14:20:27.301Z,20.52
2022-10-18T14:23:06.255Z,20.49
2022-10-18T14:25:40.446Z,20.39
2022-10-18T14:28:15.543Z,20.27
2022-10-18T14:31:06.291Z,20.20
2022-10-18T14:33:43.743Z,20.09
2022-10-18T14:36:33.719Z,20.07
2022-10-18T14:39:08.445Z,19.94
2022-10-18T14:41:53.421Z,19.97
2022-10-18T14:44:32.957Z,19.93
2022-10-18T14:47:17.413Z,19.77
2022-10-18T14:49:57.802Z,19.82
2022-10-18T14:52:35.994Z,19.69
2022-10-18T14:55:18.896Z,19.62
2022-10-18T14:57:52.004Z,19.60
2022-10-18T15:00:32.081Z,19.60
2022-10-18T15:03:15.639Z,19.50
2022-10-18T15:05:59.505Z,19.42
2022-10-18T15:08:39.608Z,19.38
2022-10-18T15:11:22.700Z,19.44
2022-10-18T15:13:56.484Z,19.40
2022-10-18T15:16:33.895Z,19.44
2022-10-18T15:19:08.951Z,19.42
2022-10-18T15:22:19.884Z,19.41
2022-10-18T15:25:08.335Z,19.34
2022-10-18T15:30:24.124Z,19.25
2022-10-18T15:32:58.645Z,19.21
2022-10-18T15:35:36.409Z,19.16
2022-10-18T15:38:29.400Z,19.16
2022-10-18T15:41:02.407Z,19.13
2022-10-18T15:43:36.084Z,19.07
2022-10-18T15:46:30.953Z,19.01
2022-10-18T15:49:48.299Z,18.95
2022-10-18T15:52:39.062Z,18.89
2022-10-18T15:55:49.934Z,18.85
2022-10-18T15:58:26.486Z,18.85
2022-10-18T16:01:01.801Z,18.82
2022-10-18T16:03:36.194Z,18.78
2022-10-18T16:06:18.209Z,18.74
2022-10-18T16:08:53.722Z,18.68
2022-10-18T16:11:30.259Z,18.67
2022-10-18T16:14:03.191Z,18.55
2022-10-18T16:16:36.302Z,18.50
2022-10-18T16:19:18.838Z,18.45
2022-10-18T16:21:55.151Z,18.45
2022-10-18T16:24:28.913Z,18.39
2022-10-18T16:27:03.236Z,18.42
2022-10-18T16:29:36.900Z,18.34
2022-10-18T16:32:12.433Z,18.32
2022-10-18T16:34:45.520Z,18.32
2022-10-18T16:37:22.473Z,18.30
2022-10-18T16:40:02.369Z,18.21
2022-10-18T16:42:39.876Z,18.22
2022-10-18T16:45:16.883Z,18.13
2022-10-18T16:47:52.765Z,18.12
2022-10-18T16:50:29.858Z,18.05
2022-10-18T16:53:10.931Z,18.03
2022-10-18T16:55:44.736Z,17.93
2022-10-18T16:58:21.339Z,17.82
2022-10-18T17:00:56.977Z,17.75
2022-10-18T17:03:31.901Z,17.82
2022-10-18T17:06:16.924Z,17.79
2022-10-18T17:09:03.517Z,17.75
2022-10-18T17:11:52.998Z,17.63
2022-10-18T17:14:44.211Z,17.62
2022-10-18T17:17:24.836Z,17.46
2022-10-18T17:20:02.469Z,17.49
2022-10-18T17:22:41.411Z,17.36
2022-10-18T17:25:15.995Z,17.37
2022-10-18T17:27:53.591Z,17.33
2022-10-18T17:30:32.302Z,17.22
2022-10-18T17:33:10.290Z,17.23
2022-10-18T17:35:44.216Z,17.14
2022-10-18T17:39:16.588Z,17.15
2022-10-18T17:42:07.336Z,17.06
2022-10-18T17:45:42.192Z,17.04
2022-10-18T17:49:09.221Z,17.07
2022-10-18T17:55:59.013Z,17.14
2022-10-18T17:59:00.584Z,17.04
2022-10-18T18:02:14.396Z,16.93
2022-10-18T18:05:25.023Z,17.01
2022-10-18T18:08:46.788Z,16.84
2022-10-18T18:11:54.061Z,16.88
2022-10-18T18:14:39.183Z,16.73
2022-10-18T18:17:56.022Z,16.78
2022-10-18T18:21:05.454Z,16.70
2022-10-18T18:24:12.858Z,16.68
2022-10-18T18:30:30.655Z,16.52
2022-10-18T18:33:20.965Z,16.58
2022-10-18T18:36:11.003Z,16.50
2022-10-18T18:39:13.001Z,16.47
2022-10-18T18:42:12.971Z,16.29
2022-10-18T18:45:06.384Z,16.32
2022-10-18T18:47:51.683Z,16.30
2022-10-18T18:51:00.117Z,16.20
2022-10-18T18:56:58.005Z,16.14
2022-10-18T18:59:38.773Z,16.09
2022-10-18T19:02:22.259Z,16.08
2022-10-18T19:04:55.450Z,15.99
2022-10-18T19:07:31.928Z,15.99
2022-10-18T19:10:06.030Z,15.95
2022-10-18T19:12:40.555Z,15.93
2022-10-18T19:15:22.591Z,15.90
2022-10-18T19:18:31.722Z,15.90
2022-10-18T19:21:12.391Z,15.86
2022-10-18T19:23:46.012Z,15.87
2022-10-18T19:26:44.593Z,15.73
2022-10-18T19:29:40.929Z,15.71
2022-10-18T19:32:37.250Z,15.69
2022-10-18T19:35:13.497Z,15.70
2022-10-18T19:41:29.505Z,15.54
2022-10-18T19:44:20.377Z,15.52
2022-10-18T19:47:56.715Z,15.49
2022-10-18T19:50:41.876Z,15.51
2022-10-18T20:01:29.344Z,15.45
2022-10-18T20:04:03.844Z,15.42
2022-10-18T20:06:42.820Z,15.41
2022-10-18T20:09:20.752Z,15.36
2022-10-18T20:11:53.988Z,15.38
2022-10-18T20:14:28.414Z,15.34
2022-10-18T20:17:01.301Z,15.33
2022-10-18T20:19:34.427Z,15.37
2022-10-18T20:22:10.164Z,15.28
2022-10-18T20:24:43.004Z,15.29
2022-10-18T20:27:16.192Z,15.26
2022-10-18T20:29:49.171Z,15.25
2022-10-18T20:32:22.158Z,15.29
2022-10-18T20:34:54.878Z,15.20
2022-10-18T20:37:29.703Z,15.18
2022-10-18T20:40:02.647Z,15.14
2022-10-18T20:42:35.752Z,15.18
2022-10-18T20:45:08.886Z,15.16
2022-10-18T20:47:41.568Z,15.17
2022-10-18T20:50:14.400Z,15.13
2022-10-18T20:52:51.297Z,15.07
2022-10-18T20:55:24.155Z,15.07
2022-10-18T20:57:56.935Z,15.07
2022-10-18T21:00:29.659Z,15.06
2022-10-18T21:03:03.108Z,15.02
2022-10-18T21:05:36.026Z,15.02
2022-10-18T21:08:10.244Z,15.00
2022-10-18T21:10:43.154Z,14.98
2022-10-18T21:13:15.943Z,14.95
2022-10-18T21:15:55.205Z,14.95
2022-10-18T21:18:29.100Z,14.97
2022-10-18T21:21:09.295Z,14.97
2022-10-18T21:23:44.056Z,14.86
2022-10-18T21:26:18.685Z,14.82
2022-10-18T21:28:52.608Z,14.76
2022-10-18T21:31:26.893Z,14.78
2022-10-18T21:34:01.423Z,14.77
2022-10-18T21:36:35.899Z,14.71
2022-10-18T21:39:13.442Z,14.62
2022-10-18T21:41:47.034Z,14.68
2022-10-18T21:44:19.900Z,14.68
2022-10-18T21:46:52.771Z,14.65
2022-10-18T21:49:26.321Z,14.64
2022-10-18T21:52:03.323Z,14.69
2022-10-18T21:54:37.464Z,14.71
2022-10-18T21:57:10.168Z,14.69
2022-10-18T21:59:42.866Z,14.73
2022-10-18T22:02:15.954Z,14.64
2022-10-18T22:04:49.724Z,14.71
2022-10-18T22:07:22.496Z,14.67
2022-10-18T22:09:56.587Z,14.65
2022-10-18T22:12:29.398Z,14.64
2022-10-18T22:15:02.714Z,14.60
2022-10-18T22:17:35.891Z,14.60
2022-10-18T22:20:10.190Z,14.60
2022-10-18T22:22:42.968Z,14.54
2022-10-18T22:25:17.241Z,14.53
2022-10-18T22:27:50.240Z,14.49
2022-10-18T22:30:22.925Z,14.49
2022-10-18T22:32:56.587Z,14.44
2022-10-18T22:35:29.535Z,14.47
2022-10-18T22:38:02.503Z,14.41
2022-10-18T22:40:36.740Z,14.37
2022-10-18T22:43:09.472Z,14.34
2022-10-18T22:45:42.634Z,14.34
2022-10-18T22:48:15.422Z,14.29
2022-10-18T22:50:48.213Z,14.27
2022-10-18T22:53:21.033Z,14.26
2022-10-18T22:55:55.445Z,14.23
2022-10-18T22:58:28.315Z,14.21
2022-10-18T23:01:02.611Z,14.16
2022-10-18T23:03:35.662Z,14.14
2022-10-18T23:06:19.022Z,14.14
2022-10-18T23:08:52.734Z,14.10
2022-10-18T23:11:28.287Z,14.09
2022-10-18T23:14:01.552Z,14.12
2022-10-18T23:16:34.525Z,14.05
2022-10-18T23:19:07.178Z,14.03
2022-10-18T23:21:40.024Z,13.98
2022-10-18T23:24:12.755Z,14.02
2022-10-18T23:26:46.815Z,13.95
2022-10-18T23:29:19.681Z,13.93
2022-10-18T23:31:52.481Z,13.97
2022-10-18T23:34:25.256Z,13.87
2022-10-18T23:36:58.162Z,13.87
2022-10-18T23:39:30.997Z,13.84
2022-10-18T23:42:06.089Z,13.82
2022-10-18T23:44:38.867Z,13.79
2022-10-18T23:47:11.863Z,13.83
2022-10-18T23:49:44.419Z,13.78
2022-10-18T23:52:17.171Z,13.73
2022-10-18T23:54:49.929Z,13.75
2022-10-18T23:57:24.195Z,13.77
2022-10-18T23:59:56.983Z,13.79
